Time;durP1;ratioP1;P1;durP2;ratioP2;P2;SDS_P1;SDS_P2;PMS_P1;PMS_P2;Temp;Humidity;BMP_temperature;BMP_pressure;BME280_temperature;BME280_humidity;BME280_pressure;Samples;Min_cycle;Max_cycle;Signal;HPM_P1;HPM_P2
2023/10/17 00:02:07;;;;;;;6.10;1.42;;;8.60;99.90;;;;;;5077611;28;20036;-72
2023/10/17 00:04:33;;;;;;;4.18;1.63;;;8.60;99.90;;;;;;5074553;28;20529;-71
2023/10/17 00:07:02;;;;;;;6.97;1.80;;;8.60;99.90;;;;;;5083730;28;20153;-72
2023/10/17 00:09:36;;;;;;;5.88;1.00;;;8.60;99.90;;;;;;5095780;28;20047;-72
2023/10/17 00:12:25;;;;;;;7.35;1.63;;;8.60;99.90;;;;;;5092841;28;20027;-72
2023/10/17 00:17:19;;;;;;;3.25;1.58;;;8.60;99.90;;;;;;5087799;28;20040;-71
2023/10/17 00:19:45;;;;;;;3.35;1.10;;;8.60;99.90;;;;;;5081548;28;20047;-71
2023/10/17 00:22:17;;;;;;;4.45;1.08;;;8.60;99.90;;;;;;5101479;28;20028;-71
2023/10/17 00:24:47;;;;;;;5.82;2.05;;;8.60;99.90;;;;;;5074750;28;20039;-71
2023/10/17 00:27:15;;;;;;;6.95;2.42;;;8.60;99.90;;;;;;5097689;28;20597;-71
2023/10/17 00:29:41;;;;;;;3.20;1.30;;;8.60;99.90;;;;;;5072899;28;20040;-71
2023/10/17 00:32:09;;;;;;;6.88;1.67;;;8.60;99.90;;;;;;5094728;28;20478;-72
2023/10/17 00:34:36;;;;;;;6.40;1.25;;;8.60;99.90;;;;;;5098109;28;20036;-70
2023/10/17 00:37:11;;;;;;;2.58;1.17;;;8.60;99.90;;;;;;5076987;28;20042;-72
2023/10/17 00:39:38;;;;;;;5.50;1.35;;;8.60;99.90;;;;;;5074833;28;20044;-71
2023/10/17 00:44:41;;;;;;;5.22;1.70;;;8.50;99.90;;;;;;5091481;28;20397;-72
2023/10/17 00:47:09;;;;;;;3.13;1.63;;;8.50;99.90;;;;;;5068910;28;20035;-72
2023/10/17 00:49:44;;;;;;;3.45;0.77;;;8.50;99.90;;;;;;5095921;28;20039;-71
2023/10/17 00:52:28;;;;;;;2.47;0.80;;;8.50;99.90;;;;;;5087197;28;20036;-72
2023/10/17 00:54:55;;;;;;;5.32;1.83;;;8.50;99.90;;;;;;5084310;28;20036;-70
2023/10/17 00:57:26;;;;;;;4.18;1.75;;;8.50;99.90;;;;;;5068656;28;20032;-70
2023/10/17 00:59:55;;;;;;;4.97;1.08;;;8.50;99.90;;;;;;5074764;28;20036;-71
2023/10/17 01:02:23;;;;;;;4.80;1.02;;;8.50;99.90;;;;;;5095158;28;20039;-71
2023/10/17 01:04:52;;;;;;;5.35;1.25;;;8.50;99.90;;;;;;5091723;28;20126;-70
2023/10/17 01:07:30;;;;;;;5.15;0.98;;;8.40;99.90;;;;;;5077591;28;20036;-70
2023/10/17 01:10:10;;;;;;;4.15;1.13;;;8.50;99.90;;;;;;5070103;28;20115;-70
2023/10/17 01:12:40;;;;;;;4.35;1.40;;;8.50;99.90;;;;;;5074972;28;20036;-71
2023/10/17 01:15:06;;;;;;;2.72;0.98;;;8.50;99.90;;;;;;5070813;28;20056;-71
2023/10/17 01:17:35;;;;;;;1.98;1.00;;;8.50;99.90;;;;;;5077352;28;20070;-71
2023/10/17 01:20:07;;;;;;;2.45;0.88;;;8.60;99.90;;;;;;5073439;28;20489;-70
2023/10/17 01:22:33;;;;;;;5.35;1.30;;;8.50;99.90;;;;;;5070674;28;20040;-70
2023/10/17 01:25:08;;;;;;;3.75;1.27;;;8.50;99.90;;;;;;5071792;28;20367;-70
2023/10/17 01:27:34;;;;;;;3.80;0.90;;;8.50;99.90;;;;;;5073108;28;20040;-70
2023/10/17 01:30:00;;;;;;;4.82;1.60;;;8.50;99.90;;;;;;5070132;28;20461;-72
2023/10/17 01:32:27;;;;;;;3.67;1.25;;;8.50;99.90;;;;;;5073449;28;20028;-71
2023/10/17 01:34:52;;;;;;;4.90;0.90;;;8.50;99.90;;;;;;5074121;28;20074;-70
2023/10/17 01:37:19;;;;;;;1.85;0.93;;;8.50;99.90;;;;;;5068914;28;20645;-70
2023/10/17 01:39:45;;;;;;;2.90;1.02;;;8.50;99.90;;;;;;5068093;28;20339;-71
2023/10/17 01:42:11;;;;;;;2.10;0.93;;;8.50;99.90;;;;;;5068780;28;20032;-70
2023/10/17 01:44:37;;;;;;;3.83;1.30;;;8.50;99.90;;;;;;5088346;28;20088;-71
2023/10/17 01:47:07;;;;;;;5.70;0.88;;;8.50;99.90;;;;;;5072719;28;20682;-71
2023/10/17 01:49:33;;;;;;;;;;;8.50;99.90;;;;;;5070417;28;20056;-71
2023/10/17 01:51:58;;;;;;;4.20;0.70;;;8.50;99.90;;;;;;5094348;28;20378;-72
2023/10/17 01:54:25;;;;;;;8.38;1.00;;;8.50;99.90;;;;;;5087825;28;20044;-71
2023/10/17 01:56:51;;;;;;;5.30;0.93;;;8.50;99.90;;;;;;5073770;28;20039;-71
2023/10/17 01:59:35;;;;;;;6.75;0.77;;;8.50;99.90;;;;;;5090555;28;20039;-71
2023/10/17 02:02:03;;;;;;;2.72;0.68;;;8.60;99.90;;;;;;5090813;28;20031;-70
2023/10/17 02:04:30;;;;;;;6.10;0.80;;;8.60;99.90;;;;;;5072074;28;20062;-70
2023/10/17 02:06:56;;;;;;;4.47;0.68;;;8.50;99.90;;;;;;5096931;28;20051;-70
2023/10/17 02:11:54;;;;;;;7.63;1.83;;;8.60;99.90;;;;;;5088584;28;20148;-70
2023/10/17 02:14:23;;;;;;;3.78;1.10;;;8.50;99.90;;;;;;5067832;28;20040;-70
2023/10/17 02:16:49;;;;;;;3.15;0.75;;;8.60;99.90;;;;;;5082084;28;20032;-72
2023/10/17 02:19:15;;;;;;;3.65;1.30;;;8.60;99.90;;;;;;5089296;28;20044;-71
2023/10/17 02:21:43;;;;;;;2.97;0.70;;;8.50;99.90;;;;;;5092367;28;20027;-71
2023/10/17 02:24:09;;;;;;;2.13;0.55;;;8.50;99.90;;;;;;5073057;28;20061;-70
2023/10/17 02:26:54;;;;;;;4.20;0.73;;;8.50;99.90;;;;;;5073422;28;20048;-71
2023/10/17 02:29:24;;;;;;;2.60;0.95;;;8.50;99.90;;;;;;5095711;28;20050;-70
2023/10/17 02:31:52;;;;;;;;;;;8.60;99.90;;;;;;5067161;28;20134;-72
2023/10/17 02:34:22;;;;;;;7.18;1.10;;;8.60;99.90;;;;;;5090001;28;19912;-71
2023/10/17 02:36:48;;;;;;;3.92;1.05;;;8.60;99.90;;;;;;5093994;28;20119;-71
2023/10/17 02:39:14;;;;;;;4.45;1.35;;;8.60;99.90;;;;;;5087614;28;20048;-71
2023/10/17 02:41:45;;;;;;;6.30;0.70;;;8.60;99.90;;;;;;5098701;28;20135;-70
2023/10/17 02:44:12;;;;;;;3.47;0.90;;;8.50;99.90;;;;;;5076382;28;20061;-70
2023/10/17 02:46:37;;;;;;;2.65;0.93;;;8.60;99.90;;;;;;5095591;28;20024;-70
2023/10/17 02:49:07;;;;;;;3.53;1.45;;;8.60;99.90;;;;;;5077324;28;20051;-72
2023/10/17 02:51:33;;;;;;;1.45;1.00;;;8.50;99.90;;;;;;5071956;28;20041;-71
2023/10/17 02:54:05;;;;;;;6.57;0.70;;;8.50;99.90;;;;;;5072576;28;20477;-73
2023/10/17 02:56:37;;;;;;;1.77;0.60;;;8.60;99.90;;;;;;5075029;28;20043;-72
2023/10/17 02:59:06;;;;;;;4.55;1.05;;;8.50;99.90;;;;;;5090931;28;20386;-71
2023/10/17 03:01:37;;;;;;;2.78;0.85;;;8.50;99.90;;;;;;5073607;28;20071;-72
2023/10/17 03:04:10;;;;;;;6.15;0.88;;;8.50;99.90;;;;;;5073461;28;20521;-71
2023/10/17 03:06:43;;;;;;;3.88;0.80;;;8.60;99.90;;;;;;5074880;28;20036;-71
2023/10/17 03:14:39;;;;;;;2.97;1.00;;;8.50;99.90;;;;;;5095123;28;20036;-71
2023/10/17 03:17:04;;;;;;;10.35;1.67;;;8.50;99.90;;;;;;5089673;28;20036;-73
2023/10/17 03:19:32;;;;;;;3.53;0.95;;;8.50;99.90;;;;;;5094207;28;20039;-71
2023/10/17 03:22:16;;;;;;;3.13;0.98;;;8.40;99.90;;;;;;5091810;28;20047;-70
2023/10/17 03:24:45;;;;;;;7.25;0.80;;;8.40;99.90;;;;;;5095493;28;20824;-70
2023/10/17 03:29:55;;;;;;;4.93;1.20;;;8.40;99.90;;;;;;5093393;28;20508;-71
2023/10/17 03:32:23;;;;;;;4.72;0.73;;;8.40;99.90;;;;;;5082594;28;20059;-71
2023/10/17 03:34:56;;;;;;;5.28;1.10;;;8.30;99.90;;;;;;5077907;28;20086;-70
2023/10/17 03:39:55;;;;;;;3.05;0.60;;;8.40;99.90;;;;;;5091696;28;20115;-71
2023/10/17 03:45:13;;;;;;;1.92;1.15;;;8.40;99.90;;;;;;5097655;28;20493;-72
2023/10/17 03:47:47;;;;;;;6.65;1.10;;;8.40;99.90;;;;;;5099144;28;20032;-71
2023/10/17 03:50:23;;;;;;;4.32;1.05;;;8.40;99.90;;;;;;5073237;28;20032;-71
2023/10/17 03:52:55;;;;;;;3.90;0.73;;;8.40;99.90;;;;;;5094199;28;20035;-71
2023/10/17 03:55:21;;;;;;;1.73;0.70;;;8.40;99.90;;;;;;5096532;28;20154;-71
2023/10/17 03:57:52;;;;;;;4.15;1.23;;;8.40;99.90;;;;;;5078695;28;20053;-72
2023/10/17 04:03:08;;;;;;;5.85;1.30;;;8.40;99.90;;;;;;5092570;28;20051;-70
2023/10/17 04:05:34;;;;;;;4.22;1.35;;;8.30;99.90;;;;;;5075896;28;20105;-70
2023/10/17 04:08:00;;;;;;;2.70;0.90;;;8.30;99.90;;;;;;5090297;28;20036;-70
2023/10/17 04:10:35;;;;;;;2.63;0.65;;;8.30;99.90;;;;;;5075668;28;20564;-71
2023/10/17 04:13:21;;;;;;;5.20;0.95;;;8.40;99.90;;;;;;5072849;28;20490;-70
2023/10/17 04:15:46;;;;;;;2.88;0.73;;;8.40;99.90;;;;;;5108072;28;20066;-71
2023/10/17 04:18:12;;;;;;;6.15;0.90;;;8.40;99.90;;;;;;5077151;28;20513;-70
2023/10/17 04:20:39;;;;;;;5.43;0.95;;;8.40;99.90;;;;;;5081811;28;20028;-70
2023/10/17 04:23:05;;;;;;;3.20;1.05;;;8.30;99.90;;;;;;5095607;28;20073;-71
2023/10/17 04:27:59;;;;;;;1.95;0.80;;;8.40;99.90;;;;;;5088823;28;20762;-73
2023/10/17 04:30:46;;;;;;;2.78;0.90;;;8.40;99.90;;;;;;5091130;28;20120;-70
2023/10/17 04:33:19;;;;;;;3.83;1.20;;;8.40;99.90;;;;;;5062130;28;20036;-71
2023/10/17 04:35:48;;;;;;;3.20;1.00;;;8.50;99.90;;;;;;5074487;28;20489;-71
2023/10/17 04:38:19;;;;;;;3.97;0.90;;;8.40;99.90;;;;;;5074816;28;20111;-71
2023/10/17 04:40:59;;;;;;;4.25;1.13;;;8.50;99.90;;;;;;5067978;28;20024;-71
2023/10/17 04:46:09;;;;;;;2.25;1.00;;;8.40;99.90;;;;;;5083957;28;20042;-71
2023/10/17 04:48:36;;;;;;;2.13;1.10;;;8.40;99.90;;;;;;5096194;28;20040;-71
2023/10/17 04:53:49;;;;;;;3.90;1.00;;;8.40;99.90;;;;;;5092315;28;20028;-71
2023/10/17 04:56:22;;;;;;;2.67;0.70;;;8.40;99.90;;;;;;5086475;28;20028;-71
2023/10/17 04:58:53;;;;;;;5.30;0.90;;;8.40;99.90;;;;;;5086217;28;20034;-70
2023/10/17 05:04:33;;;;;;;2.65;1.00;;;8.30;99.90;;;;;;5082458;28;20057;-71
2023/10/17 06:17:49;;;;;;;4.03;1.67;;;7.80;99.90;;;;;;5090543;28;20116;-71
2023/10/17 06:20:43;;;;;;;3.20;0.98;;;7.80;99.90;;;;;;5091868;28;20087;-71
2023/10/17 06:30:48;;;;;;;4.25;1.70;;;7.80;99.90;;;;;;5089825;28;20044;-71
2023/10/17 06:33:17;;;;;;;3.38;1.40;;;7.80;99.90;;;;;;5086643;28;20028;-71
2023/10/17 06:35:44;;;;;;;4.32;2.13;;;7.80;99.90;;;;;;5074976;28;20576;-71
2023/10/17 06:38:10;;;;;;;4.35;1.08;;;7.80;99.90;;;;;;5093273;28;20039;-71
2023/10/17 06:40:45;;;;;;;1.98;1.05;;;7.80;99.90;;;;;;5092553;28;20036;-71
2023/10/17 06:43:15;;;;;;;6.85;1.20;;;7.80;99.90;;;;;;5076064;28;20027;-71
2023/10/17 06:46:11;;;;;;;3.60;1.55;;;7.80;99.90;;;;;;5074827;28;20401;-70
2023/10/17 06:48:36;;;;;;;8.32;2.13;;;7.80;99.90;;;;;;5073954;28;20024;-71
2023/10/17 06:53:34;;;;;;;5.80;1.33;;;7.80;99.90;;;;;;5085213;28;20031;-71
2023/10/17 06:56:05;;;;;;;4.45;1.90;;;7.80;99.90;;;;;;5077022;28;20031;-72
2023/10/17 06:58:32;;;;;;;3.75;1.60;;;7.80;99.90;;;;;;5079215;28;20449;-70
2023/10/17 07:00:59;;;;;;;5.95;1.83;;;7.80;99.90;;;;;;5076564;28;20027;-70
2023/10/17 07:03:25;;;;;;;5.55;2.45;;;7.80;99.90;;;;;;5075687;28;20040;-70
2023/10/17 07:06:03;;;;;;;6.85;2.15;;;7.80;99.90;;;;;;5096095;28;20031;-70
2023/10/17 07:08:36;;;;;;;9.73;2.30;;;7.80;99.90;;;;;;5088455;28;20040;-70
2023/10/17 07:13:56;;;;;;;7.85;2.88;;;7.90;99.90;;;;;;5087056;28;20057;-73
2023/10/17 07:16:26;;;;;;;12.55;2.90;;;7.90;99.90;;;;;;5078233;28;20409;-71
2023/10/17 07:18:53;;;;;;;7.50;3.20;;;8.00;99.90;;;;;;5086181;28;20036;-71
2023/10/17 07:21:25;;;;;;;9.18;3.75;;;8.10;99.90;;;;;;5079199;28;20205;-70
2023/10/17 07:23:55;;;;;;;8.05;3.85;;;8.10;99.90;;;;;;5094916;28;20521;-72
2023/10/17 07:28:53;;;;;;;10.43;4.13;;;8.40;99.90;;;;;;5092829;28;20711;-71
2023/10/17 07:31:20;;;;;;;11.65;4.30;;;8.40;99.90;;;;;;5073808;28;20028;-71
2023/10/17 07:33:47;;;;;;;11.85;4.90;;;8.60;99.90;;;;;;5097149;28;20046;-72
2023/10/17 07:36:15;;;;;;;13.65;4.95;;;8.60;99.90;;;;;;5091232;28;20027;-70
2023/10/17 07:38:43;;;;;;;8.80;4.22;;;8.70;99.90;;;;;;5074979;28;20039;-70
2023/10/17 07:41:14;;;;;;;15.32;4.50;;;8.80;99.90;;;;;;5079351;28;20028;-70
2023/10/17 07:43:57;;;;;;;10.40;5.18;;;8.80;99.90;;;;;;5089982;28;20115;-70
2023/10/17 07:46:26;;;;;;;12.57;3.55;;;8.80;99.90;;;;;;5095008;28;20478;-71
2023/10/17 07:49:02;;;;;;;10.18;4.75;;;8.90;99.90;;;;;;5088990;28;21586;-71
2023/10/17 07:51:28;;;;;;;11.63;4.50;;;9.00;99.90;;;;;;5085441;28;20027;-70
2023/10/17 07:53:54;;;;;;;12.48;4.65;;;9.00;99.90;;;;;;5076358;28;20042;-70
2023/10/17 07:56:24;;;;;;;8.90;4.07;;;9.00;99.90;;;;;;5089454;28;20528;-71
2023/10/17 07:59:15;;;;;;;10.65;3.85;;;9.10;99.90;;;;;;5071499;28;20040;-71
2023/10/17 08:01:42;;;;;;;9.52;3.90;;;9.10;99.90;;;;;;5085842;28;20054;-71
2023/10/17 08:04:30;;;;;;;9.65;4.47;;;9.20;99.90;;;;;;5075313;28;20497;-71
2023/10/17 08:06:56;;;;;;;12.60;4.60;;;9.30;99.90;;;;;;5090126;28;20037;-71
2023/10/17 08:11:52;;;;;;;9.68;4.32;;;9.50;99.90;;;;;;5086649;28;20031;-71
2023/10/17 08:14:40;;;;;;;10.55;3.83;;;9.60;99.90;;;;;;5091311;28;20036;-71
2023/10/17 08:17:08;;;;;;;12.20;4.72;;;9.60;99.90;;;;;;5086915;28;20040;-72
2023/10/17 08:22:18;;;;;;;14.50;4.82;;;9.70;99.90;;;;;;5085970;28;20066;-71
2023/10/17 08:24:51;;;;;;;12.32;4.30;;;9.70;99.90;;;;;;5079860;28;20044;-71
2023/10/17 08:32:47;;;;;;;13.02;4.68;;;9.90;99.90;;;;;;5086494;28;20047;-71
2023/10/17 08:35:19;;;;;;;14.82;4.05;;;9.90;99.90;;;;;;5077781;28;20035;-71
2023/10/17 08:37:45;;;;;;;13.20;4.10;;;10.00;99.90;;;;;;5086759;28;20089;-71
2023/10/17 08:40:31;;;;;;;10.57;4.15;;;10.00;99.90;;;;;;5077211;28;20044;-71
2023/10/17 08:43:01;;;;;;;7.10;3.45;;;10.20;99.90;;;;;;5086467;28;20043;-70
2023/10/17 08:45:28;;;;;;;7.07;3.35;;;10.20;99.90;;;;;;5087197;28;20503;-71
2023/10/17 08:48:00;;;;;;;9.50;3.58;;;10.20;99.90;;;;;;5090753;28;20056;-70
2023/10/17 08:50:27;;;;;;;6.55;3.10;;;10.20;99.90;;;;;;5072512;28;20040;-70
2023/10/17 08:52:56;;;;;;;11.65;3.30;;;10.30;99.90;;;;;;5076247;28;20478;-70
2023/10/17 08:55:22;;;;;;;9.65;3.30;;;10.40;99.90;;;;;;5078426;28;20509;-70
2023/10/17 08:57:49;;;;;;;8.38;3.10;;;10.40;99.90;;;;;;5090892;28;20039;-71
2023/10/17 09:00:23;;;;;;;11.23;3.75;;;10.40;99.90;;;;;;5089688;28;20036;-71
2023/10/17 09:03:00;;;;;;;8.38;3.45;;;10.50;99.90;;;;;;5087919;28;20036;-71
2023/10/17 09:05:26;;;;;;;9.73;3.60;;;10.50;99.90;;;;;;5071585;28;20036;-71
2023/10/17 09:07:55;;;;;;;10.70;3.72;;;10.60;99.90;;;;;;5076455;28;20039;-70
2023/10/17 09:10:30;;;;;;;9.25;3.08;;;10.70;99.90;;;;;;5088363;28;20049;-74
2023/10/17 09:13:52;;;;;;;11.85;3.95;;;10.80;99.90;;;;;;5071495;28;20032;-71
2023/10/17 09:16:13;;;;;;;8.63;3.40;;;10.80;99.90;;;;;;5084349;28;20490;-72
2023/10/17 09:18:47;;;;;;;9.70;3.53;;;10.90;99.90;;;;;;5072881;28;20688;-72
2023/10/17 09:21:13;;;;;;;5.00;2.55;;;10.90;99.90;;;;;;5088176;28;20016;-72
2023/10/17 09:23:41;;;;;;;7.78;3.00;;;11.00;99.90;;;;;;5072524;28;20043;-71
2023/10/17 09:26:10;;;;;;;10.90;2.38;;;11.00;99.90;;;;;;5091055;28;20035;-72
2023/10/17 09:28:36;;;;;;;6.10;2.38;;;11.10;99.90;;;;;;5090391;28;20036;-71
2023/10/17 09:31:08;;;;;;;5.03;2.45;;;11.10;99.90;;;;;;5073797;28;20030;-72
2023/10/17 09:33:43;;;;;;;5.20;2.28;;;11.10;99.90;;;;;;5087979;28;20040;-73
2023/10/17 09:36:10;;;;;;;8.15;2.20;;;11.10;99.90;;;;;;5089431;28;20036;-71
2023/10/17 09:38:43;;;;;;;8.68;3.58;;;11.10;99.90;;;;;;5072148;28;20043;-71
2023/10/17 09:41:18;;;;;;;6.40;2.00;;;11.20;99.90;;;;;;5070987;28;20058;-72
2023/10/17 09:43:45;;;;;;;5.35;2.35;;;11.30;99.90;;;;;;5086037;28;20024;-72
2023/10/17 09:46:14;;;;;;;5.45;2.03;;;11.30;99.90;;;;;;5070490;28;20386;-71
2023/10/17 09:48:46;;;;;;;9.35;2.90;;;11.30;99.90;;;;;;5070606;28;20043;-71
2023/10/17 09:51:21;;;;;;;6.22;2.45;;;11.40;99.90;;;;;;5071507;28;20028;-71
2023/10/17 09:54:00;;;;;;;3.53;1.70;;;11.40;99.90;;;;;;5092540;28;20422;-71
2023/10/17 09:56:36;;;;;;;4.97;1.73;;;11.40;99.90;;;;;;5072723;28;20032;-72
2023/10/17 09:59:11;;;;;;;6.90;1.70;;;11.50;99.90;;;;;;5073325;28;20036;-71
2023/10/17 10:01:39;;;;;;;5.13;1.83;;;11.50;99.90;;;;;;5068054;28;20032;-72
2023/10/17 10:04:07;;;;;;;13.35;2.45;;;11.50;99.90;;;;;;5065098;28;20028;-70
2023/10/17 10:06:34;;;;;;;5.15;1.77;;;11.50;99.90;;;;;;5093393;28;20059;-72
2023/10/17 10:09:05;;;;;;;2.58;1.58;;;11.60;99.90;;;;;;5074450;28;20036;-70
2023/10/17 10:11:49;;;;;;;5.30;1.98;;;11.60;99.90;;;;;;5072997;28;20036;-71
2023/10/17 10:14:42;;;;;;;4.18;1.88;;;11.70;99.90;;;;;;5073578;28;20055;-71
2023/10/17 10:17:09;;;;;;;8.18;1.90;;;11.70;99.90;;;;;;5065836;28;20035;-70
2023/10/17 10:19:40;;;;;;;6.28;1.75;;;11.70;99.90;;;;;;5075518;28;20071;-71
2023/10/17 10:22:07;;;;;;;5.25;2.05;;;11.70;99.90;;;;;;5074500;28;20040;-70
2023/10/17 10:24:36;;;;;;;5.35;2.00;;;11.70;99.90;;;;;;5069932;28;20044;-71
2023/10/17 10:27:23;;;;;;;5.93;1.95;;;11.80;99.90;;;;;;5088246;28;21482;-70
2023/10/17 10:29:52;;;;;;;4.43;2.03;;;11.80;99.90;;;;;;5074321;28;20074;-69
2023/10/17 10:32:42;;;;;;;5.83;2.53;;;11.80;99.90;;;;;;5073038;28;20020;-71
2023/10/17 10:35:08;;;;;;;4.80;1.63;;;11.80;99.90;;;;;;5088079;28;20063;-72
2023/10/17 10:37:52;;;;;;;4.82;1.45;;;11.80;99.90;;;;;;5075309;28;20063;-74
2023/10/17 10:40:22;;;;;;;7.32;1.80;;;11.80;99.90;;;;;;5084082;28;20089;-70
2023/10/17 10:42:51;;;;;;;8.02;2.40;;;11.80;99.90;;;;;;5071986;28;20068;-70
2023/10/17 10:45:36;;;;;;;6.05;1.50;;;11.90;99.90;;;;;;5085025;28;20122;-71
2023/10/17 10:48:14;;;;;;;5.93;1.73;;;11.90;99.90;;;;;;5065856;28;20048;-73
2023/10/17 10:50:42;;;;;;;2.80;0.93;;;11.90;99.90;;;;;;5072282;28;20574;-71
2023/10/17 10:53:21;;;;;;;5.82;1.10;;;11.90;99.90;;;;;;5067329;28;20490;-70
2023/10/17 10:55:55;;;;;;;2.63;1.13;;;11.90;99.90;;;;;;5072192;28;20082;-71
2023/10/17 10:58:25;;;;;;;2.55;1.25;;;11.90;99.90;;;;;;5067818;28;20039;-71
2023/10/17 11:00:51;;;;;;;2.27;1.10;;;12.00;99.90;;;;;;5083864;28;20396;-71
2023/10/17 11:03:21;;;;;;;3.42;1.50;;;12.00;99.90;;;;;;5077251;28;20281;-72
2023/10/17 11:06:03;;;;;;;2.78;1.23;;;12.00;99.90;;;;;;5071315;28;20044;-71
2023/10/17 11:08:38;;;;;;;5.47;1.20;;;12.10;99.90;;;;;;5086399;28;20480;-71
2023/10/17 11:11:05;;;;;;;3.17;1.02;;;12.10;99.90;;;;;;5087197;28;20420;-71
2023/10/17 11:13:40;;;;;;;1.67;0.95;;;12.20;99.90;;;;;;5090584;28;20536;-71
2023/10/17 11:16:06;;;;;;;7.35;1.50;;;12.20;99.90;;;;;;5086422;28;20032;-73
2023/10/17 11:18:33;;;;;;;3.47;1.00;;;12.10;99.90;;;;;;5075300;28;20143;-71
2023/10/17 11:21:00;;;;;;;5.30;1.92;;;12.20;99.90;;;;;;5078026;28;20081;-71
2023/10/17 11:23:27;;;;;;;4.15;1.10;;;12.20;99.90;;;;;;5073153;28;20036;-71
2023/10/17 11:25:53;;;;;;;5.93;1.17;;;12.20;99.90;;;;;;5089622;28;20024;-71
2023/10/17 11:28:19;;;;;;;2.72;1.00;;;12.30;99.90;;;;;;5089385;28;21380;-72
2023/10/17 11:30:48;;;;;;;4.35;1.13;;;12.40;99.90;;;;;;5070433;28;20810;-71
2023/10/17 11:33:16;;;;;;;3.95;1.00;;;12.50;99.90;;;;;;5089220;28;20032;-72
2023/10/17 11:35:52;;;;;;;7.95;0.95;;;12.40;99.90;;;;;;5076493;28;20179;-71
2023/10/17 11:38:38;;;;;;;4.30;1.38;;;12.50;99.90;;;;;;5068871;28;20023;-70
2023/10/17 11:41:07;;;;;;;1.20;0.73;;;12.40;99.90;;;;;;5075213;28;20457;-70
2023/10/17 11:43:42;;;;;;;3.97;0.80;;;12.40;99.90;;;;;;5089155;28;20092;-71
2023/10/17 11:46:12;;;;;;;3.22;0.80;;;12.40;99.90;;;;;;5088681;28;20028;-71
2023/10/17 11:48:43;;;;;;;;;;;12.40;99.90;;;;;;5093435;28;20028;-71
2023/10/17 11:51:18;;;;;;;1.75;1.02;;;12.40;99.90;;;;;;5090831;28;19919;-70
2023/10/17 11:54:09;;;;;;;4.70;0.93;;;12.40;99.90;;;;;;5073762;28;20446;-71
2023/10/17 11:56:37;;;;;;;3.05;1.30;;;12.40;99.90;;;;;;5089246;28;20043;-71
2023/10/17 11:59:06;;;;;;;2.42;0.88;;;12.40;99.90;;;;;;5092900;28;20429;-70
2023/10/17 12:01:32;;;;;;;2.92;0.88;;;12.40;99.90;;;;;;5083320;28;20133;-71
2023/10/17 12:04:08;;;;;;;1.92;0.80;;;12.50;99.90;;;;;;5078277;28;20367;-71
2023/10/17 12:06:34;;;;;;;4.75;1.05;;;12.50;99.90;;;;;;5093074;28;20036;-70
2023/10/17 12:09:17;;;;;;;2.97;1.00;;;12.40;99.90;;;;;;5085312;28;20028;-71
2023/10/17 12:12:02;;;;;;;5.22;0.80;;;12.50;99.90;;;;;;5085100;28;20040;-71
2023/10/17 12:14:28;;;;;;;2.78;0.60;;;12.50;99.90;;;;;;5075264;28;20485;-71
2023/10/17 12:16:54;;;;;;;2.63;0.50;;;12.50;99.90;;;;;;5069911;28;20034;-71
2023/10/17 12:19:27;;;;;;;5.60;2.28;;;12.50;99.90;;;;;;5088546;28;20051;-70
2023/10/17 12:22:00;;;;;;;2.47;0.75;;;12.50;99.90;;;;;;5088028;28;20031;-71
2023/10/17 12:24:34;;;;;;;1.95;1.10;;;12.50;99.90;;;;;;5074260;28;20054;-70
2023/10/17 12:27:06;;;;;;;2.60;0.75;;;12.60;99.90;;;;;;5092671;28;20051;-71
2023/10/17 12:29:34;;;;;;;3.78;0.85;;;12.50;99.90;;;;;;5078733;28;20062;-71
2023/10/17 12:32:01;;;;;;;1.30;0.70;;;12.60;99.90;;;;;;5089748;28;20047;-70
2023/10/17 12:34:27;;;;;;;4.00;0.80;;;12.60;99.90;;;;;;5094481;28;20530;-71
2023/10/17 12:36:54;;;;;;;1.42;0.50;;;12.70;99.90;;;;;;5083396;28;20031;-71
2023/10/17 12:39:19;;;;;;;4.47;0.77;;;12.70;99.90;;;;;;5088031;28;20032;-71
2023/10/17 12:41:46;;;;;;;2.35;0.82;;;12.70;99.90;;;;;;5089408;28;20556;-71
2023/10/17 12:44:12;;;;;;;1.77;0.68;;;12.70;99.90;;;;;;5070571;28;20425;-70
2023/10/17 12:46:38;;;;;;;2.42;0.88;;;12.80;99.90;;;;;;5076511;28;20058;-71
2023/10/17 12:49:06;;;;;;;5.18;1.02;;;12.80;99.90;;;;;;5089705;28;20107;-70
2023/10/17 12:51:32;;;;;;;3.38;0.55;;;12.70;99.90;;;;;;5072462;28;20035;-71
2023/10/17 12:53:58;;;;;;;0.90;0.50;;;12.60;99.90;;;;;;5090629;28;20510;-70
2023/10/17 12:56:24;;;;;;;2.30;0.80;;;12.70;99.90;;;;;;5077529;28;20067;-70
2023/10/17 12:58:51;;;;;;;2.40;0.55;;;12.60;99.90;;;;;;5089925;28;20490;-71
2023/10/17 13:01:17;;;;;;;1.23;0.75;;;12.70;99.90;;;;;;5073539;28;20040;-70
2023/10/17 13:03:43;;;;;;;2.00;0.88;;;12.70;99.90;;;;;;5091947;28;20035;-71
2023/10/17 13:06:13;;;;;;;2.20;0.40;;;12.70;99.90;;;;;;5088068;28;20035;-70
2023/10/17 13:08:40;;;;;;;2.03;0.73;;;12.60;99.90;;;;;;5090396;28;20032;-71
2023/10/17 13:11:06;;;;;;;2.10;0.52;;;12.70;99.90;;;;;;5090803;28;20039;-71
2023/10/17 13:13:32;;;;;;;1.27;0.80;;;12.60;99.90;;;;;;5087043;28;20436;-72
2023/10/17 13:15:59;;;;;;;2.90;0.65;;;12.70;99.90;;;;;;5089230;28;20040;-70
2023/10/17 13:18:25;;;;;;;1.17;0.55;;;12.80;99.90;;;;;;5078197;28;20039;-70
2023/10/17 13:20:53;;;;;;;4.65;0.50;;;12.80;99.90;;;;;;5074684;28;20040;-70
2023/10/17 13:23:20;;;;;;;1.60;0.55;;;12.70;99.90;;;;;;5071875;28;20078;-70
2023/10/17 13:25:46;;;;;;;1.90;0.70;;;12.80;99.90;;;;;;5066642;28;20040;-70
2023/10/17 13:28:12;;;;;;;4.50;0.70;;;12.70;99.90;;;;;;5087159;28;20036;-70
2023/10/17 13:30:38;;;;;;;1.30;0.82;;;12.80;99.90;;;;;;5073588;28;20482;-71
2023/10/17 13:33:04;;;;;;;5.00;1.05;;;12.70;99.90;;;;;;5071843;28;20030;-71
2023/10/17 13:35:30;;;;;;;2.53;0.70;;;12.80;99.90;;;;;;5076293;28;20040;-72
2023/10/17 13:37:58;;;;;;;1.80;0.52;;;12.70;99.90;;;;;;5077530;28;20036;-70
2023/10/17 13:40:25;;;;;;;1.73;0.40;;;12.60;99.90;;;;;;5088699;28;20040;-71
2023/10/17 13:42:54;;;;;;;2.03;0.60;;;12.70;99.90;;;;;;5075113;28;20039;-72
2023/10/17 13:45:21;;;;;;;3.33;0.65;;;12.70;99.90;;;;;;5090110;28;20032;-71
2023/10/17 13:47:49;;;;;;;4.13;1.38;;;12.60;99.90;;;;;;5089444;28;20081;-70
2023/10/17 13:50:15;;;;;;;1.58;0.52;;;12.70;99.90;;;;;;5091915;28;20024;-71
2023/10/17 13:52:41;;;;;;;2.13;0.73;;;12.70;99.90;;;;;;5073572;28;20066;-70
2023/10/17 13:55:11;;;;;;;1.30;0.50;;;12.70;99.90;;;;;;5089228;28;20032;-71
2023/10/17 13:57:38;;;;;;;2.45;0.70;;;12.70;99.90;;;;;;5086822;28;20071;-70
2023/10/17 14:00:06;;;;;;;4.18;0.82;;;12.70;99.90;;;;;;5072247;28;20032;-70
2023/10/17 14:02:32;;;;;;;1.27;0.55;;;12.80;99.90;;;;;;5072694;28;20059;-72
2023/10/17 14:04:57;;;;;;;3.03;0.52;;;12.80;99.90;;;;;;5077956;28;20036;-70
2023/10/17 14:07:23;;;;;;;1.58;0.50;;;12.80;99.90;;;;;;5074239;28;20413;-70
2023/10/17 14:09:55;;;;;;;3.95;1.10;;;12.80;99.90;;;;;;5087774;28;20839;-71
2023/10/17 14:12:21;;;;;;;2.75;0.73;;;12.80;99.90;;;;;;5076942;28;20813;-70
2023/10/17 14:14:47;;;;;;;2.25;0.45;;;12.80;99.90;;;;;;5081006;28;20563;-71
2023/10/17 14:17:12;;;;;;;4.65;0.60;;;12.80;99.90;;;;;;5086445;28;20035;-73
2023/10/17 14:19:45;;;;;;;4.65;1.02;;;12.80;99.90;;;;;;5090737;28;20452;-72
2023/10/17 14:22:21;;;;;;;1.38;0.40;;;12.80;99.90;;;;;;5073981;28;20501;-72
2023/10/17 14:24:50;;;;;;;1.40;0.52;;;12.80;99.90;;;;;;5073682;28;20062;-71
2023/10/17 14:27:29;;;;;;;2.47;0.70;;;12.80;99.90;;;;;;5073377;28;20036;-72
2023/10/17 14:30:16;;;;;;;1.20;0.60;;;12.70;99.90;;;;;;5072160;28;20089;-72
2023/10/17 14:32:41;;;;;;;2.10;0.68;;;12.80;99.90;;;;;;5083350;28;20028;-72
2023/10/17 14:35:07;;;;;;;1.17;0.52;;;12.80;99.90;;;;;;5073360;28;20379;-72
2023/10/17 14:37:33;;;;;;;2.72;0.40;;;12.70;99.90;;;;;;5091038;28;20432;-72
2023/10/17 14:40:00;;;;;;;4.05;0.65;;;12.70;99.90;;;;;;5069405;28;20155;-71
2023/10/17 14:42:27;;;;;;;1.45;0.52;;;12.60;99.90;;;;;;5081831;28;20032;-72
2023/10/17 14:44:55;;;;;;;4.57;0.80;;;12.60;99.90;;;;;;5069589;28;20028;-72
2023/10/17 14:47:21;;;;;;;1.83;0.50;;;12.60;99.90;;;;;;5088642;28;20039;-72
2023/10/17 14:49:48;;;;;;;2.55;0.70;;;12.50;99.90;;;;;;5078309;28;20642;-71
2023/10/17 14:52:15;;;;;;;2.00;0.63;;;12.60;99.90;;;;;;5084915;28;20032;-71
2023/10/17 14:54:41;;;;;;;1.55;0.80;;;12.60;99.90;;;;;;5077857;28;20028;-72
2023/10/17 14:57:09;;;;;;;3.58;0.50;;;12.60;99.90;;;;;;5077654;28;20047;-72
2023/10/17 14:59:37;;;;;;;2.55;0.40;;;12.50;99.90;;;;;;5071914;28;20515;-72
2023/10/17 15:02:03;;;;;;;3.05;0.73;;;12.50;99.90;;;;;;5087610;28;20028;-72
2023/10/17 15:04:29;;;;;;;1.15;0.68;;;12.50;99.90;;;;;;5077837;28;20055;-72
2023/10/17 15:06:54;;;;;;;2.28;0.63;;;12.50;99.90;;;;;;5090086;28;20039;-72
2023/10/17 15:09:21;;;;;;;1.58;0.40;;;12.50;99.90;;;;;;5070753;28;20032;-72
2023/10/17 15:11:48;;;;;;;2.55;0.60;;;12.40;99.90;;;;;;5069196;28;20028;-72
2023/10/17 15:14:15;;;;;;;3.38;0.80;;;12.40;99.90;;;;;;5089846;28;20037;-72
2023/10/17 15:16:41;;;;;;;3.55;0.73;;;12.40;99.90;;;;;;5078054;28;20409;-72
2023/10/17 15:19:07;;;;;;;1.63;0.85;;;12.30;99.90;;;;;;5084204;28;20078;-71